Terminal Aerodrome Forecast
Issued by NWS Upton, NY

Home | Current Version | Previous Version | Text Only | Print | Product List | Glossary On
Versions: 1 2 3 4 5 6 7 8 9 10 11 12 13 14 15 16 17 18 19 20 21 22 23 24 25 26 27 28 29 30 31 32 33 34
528
FTUS41 KOKX 280329 AAB
TAFJFK
TAF AMD
KJFK 280329Z 2803/2906 VRB04KT 6SM BR SCT015 BKN070
     FM280600 VRB03KT 4SM BR OVC015
     FM280900 VRB03KT 1SM BR OVC004
      TEMPO 2809/2813 2SM -RA BR
     FM281500 07005KT 2SM BR OVC006
     FM281800 07007KT 4SM BR OVC009
     FM290000 04006KT 2SM -RA BR OVC008=

USA.gov is the U.S. government's official web portal to all federal, state and local government web resources and services.